sensor_id;sensor_type;location;lat;lon;timestamp;P1;durP1;ratioP1;P2;durP2;ratioP2
45434;SDS011;31183;47.404;8.500;2023-08-01T00:00:42;7.75;;;5.47;;
45434;SDS011;31183;47.404;8.500;2023-08-01T00:03:09;7.30;;;5.07;;
45434;SDS011;31183;47.404;8.500;2023-08-01T00:05:35;7.80;;;5.47;;
45434;SDS011;31183;47.404;8.500;2023-08-01T00:08:03;6.43;;;5.50;;
45434;SDS011;31183;47.404;8.500;2023-08-01T00:10:30;8.52;;;5.93;;
45434;SDS011;31183;47.404;8.500;2023-08-01T00:12:56;7.97;;;5.38;;
45434;SDS011;31183;47.404;8.500;2023-08-01T00:15:23;9.38;;;5.25;;
45434;SDS011;31183;47.404;8.500;2023-08-01T00:17:50;10.75;;;6.43;;
45434;SDS011;31183;47.404;8.500;2023-08-01T00:20:16;6.70;;;5.55;;
45434;SDS011;31183;47.404;8.500;2023-08-01T00:22:43;8.00;;;5.20;;
45434;SDS011;31183;47.404;8.500;2023-08-01T00:25:10;6.28;;;5.03;;
45434;SDS011;31183;47.404;8.500;2023-08-01T00:27:37;6.70;;;6.03;;
45434;SDS011;31183;47.404;8.500;2023-08-01T00:30:06;7.70;;;4.90;;
45434;SDS011;31183;47.404;8.500;2023-08-01T00:32:34;6.25;;;5.30;;
45434;SDS011;31183;47.404;8.500;2023-08-01T00:35:01;7.13;;;5.53;;
45434;SDS011;31183;47.404;8.500;2023-08-01T00:37:29;6.03;;;4.80;;
45434;SDS011;31183;47.404;8.500;2023-08-01T00:39:55;6.10;;;4.93;;
45434;SDS011;31183;47.404;8.500;2023-08-01T00:42:22;6.88;;;4.63;;
45434;SDS011;31183;47.404;8.500;2023-08-01T00:44:48;7.05;;;5.38;;
45434;SDS011;31183;47.404;8.500;2023-08-01T00:47:17;6.78;;;5.57;;
45434;SDS011;31183;47.404;8.500;2023-08-01T00:49:45;6.10;;;4.60;;
45434;SDS011;31183;47.404;8.500;2023-08-01T00:52:11;7.72;;;4.68;;
45434;SDS011;31183;47.404;8.500;2023-08-01T00:54:39;7.35;;;5.05;;
45434;SDS011;31183;47.404;8.500;2023-08-01T00:57:06;6.82;;;4.88;;
45434;SDS011;31183;47.404;8.500;2023-08-01T00:59:33;5.47;;;4.60;;
45434;SDS011;31183;47.404;8.500;2023-08-01T01:02:01;6.80;;;4.32;;
45434;SDS011;31183;47.404;8.500;2023-08-01T01:04:28;10.63;;;4.95;;
45434;SDS011;31183;47.404;8.500;2023-08-01T01:07:05;6.57;;;4.95;;
45434;SDS011;31183;47.404;8.500;2023-08-01T01:09:33;8.07;;;4.65;;
45434;SDS011;31183;47.404;8.500;2023-08-01T01:12:00;6.22;;;4.85;;
45434;SDS011;31183;47.404;8.500;2023-08-01T01:14:26;5.57;;;4.95;;
45434;SDS011;31183;47.404;8.500;2023-08-01T01:16:53;6.43;;;5.28;;
45434;SDS011;31183;47.404;8.500;2023-08-01T01:19:20;9.63;;;4.82;;
45434;SDS011;31183;47.404;8.500;2023-08-01T01:21:47;6.85;;;4.72;;
45434;SDS011;31183;47.404;8.500;2023-08-01T01:24:15;7.10;;;5.25;;
45434;SDS011;31183;47.404;8.500;2023-08-01T01:26:43;6.32;;;4.80;;
45434;SDS011;31183;47.404;8.500;2023-08-01T01:29:12;6.63;;;4.75;;
45434;SDS011;31183;47.404;8.500;2023-08-01T01:31:40;7.43;;;4.95;;
45434;SDS011;31183;47.404;8.500;2023-08-01T01:34:08;6.97;;;4.88;;
45434;SDS011;31183;47.404;8.500;2023-08-01T01:36:35;6.75;;;5.03;;
45434;SDS011;31183;47.404;8.500;2023-08-01T01:39:01;7.18;;;4.90;;
45434;SDS011;31183;47.404;8.500;2023-08-01T01:41:28;5.93;;;4.90;;
45434;SDS011;31183;47.404;8.500;2023-08-01T01:43:55;7.75;;;4.82;;
45434;SDS011;31183;47.404;8.500;2023-08-01T01:46:21;6.43;;;4.70;;
45434;SDS011;31183;47.404;8.500;2023-08-01T01:48:48;5.65;;;5.10;;
45434;SDS011;31183;47.404;8.500;2023-08-01T01:51:14;4.63;;;4.07;;
45434;SDS011;31183;47.404;8.500;2023-08-01T01:53:41;4.60;;;3.88;;
45434;SDS011;31183;47.404;8.500;2023-08-01T01:56:08;6.55;;;4.50;;
45434;SDS011;31183;47.404;8.500;2023-08-01T01:58:35;7.20;;;4.53;;
45434;SDS011;31183;47.404;8.500;2023-08-01T02:01:02;7.20;;;4.35;;
45434;SDS011;31183;47.404;8.500;2023-08-01T02:03:28;6.43;;;4.45;;
45434;SDS011;31183;47.404;8.500;2023-08-01T02:05:55;5.78;;;4.80;;
45434;SDS011;31183;47.404;8.500;2023-08-01T02:08:22;6.75;;;5.07;;
45434;SDS011;31183;47.404;8.500;2023-08-01T02:10:48;5.38;;;4.70;;
45434;SDS011;31183;47.404;8.500;2023-08-01T02:13:15;6.05;;;3.97;;
45434;SDS011;31183;47.404;8.500;2023-08-01T02:15:42;4.85;;;4.25;;
45434;SDS011;31183;47.404;8.500;2023-08-01T02:18:09;6.25;;;4.40;;
45434;SDS011;31183;47.404;8.500;2023-08-01T02:20:35;6.22;;;4.65;;
45434;SDS011;31183;47.404;8.500;2023-08-01T02:23:02;5.15;;;4.15;;
45434;SDS011;31183;47.404;8.500;2023-08-01T02:25:29;5.55;;;4.00;;
45434;SDS011;31183;47.404;8.500;2023-08-01T02:27:55;4.10;;;3.67;;
45434;SDS011;31183;47.404;8.500;2023-08-01T02:30:22;5.85;;;4.70;;
45434;SDS011;31183;47.404;8.500;2023-08-01T02:32:49;5.20;;;4.18;;
45434;SDS011;31183;47.404;8.500;2023-08-01T02:35:16;5.93;;;5.07;;
45434;SDS011;31183;47.404;8.500;2023-08-01T02:37:42;6.25;;;4.72;;
45434;SDS011;31183;47.404;8.500;2023-08-01T02:40:09;6.05;;;4.63;;
45434;SDS011;31183;47.404;8.500;2023-08-01T02:42:36;10.48;;;7.10;;
45434;SDS011;31183;47.404;8.500;2023-08-01T02:45:03;6.68;;;5.97;;
45434;SDS011;31183;47.404;8.500;2023-08-01T02:47:30;13.23;;;6.80;;
45434;SDS011;31183;47.404;8.500;2023-08-01T02:49:56;10.02;;;5.60;;
45434;SDS011;31183;47.404;8.500;2023-08-01T02:52:23;7.97;;;6.13;;
45434;SDS011;31183;47.404;8.500;2023-08-01T02:54:50;6.32;;;5.60;;
45434;SDS011;31183;47.404;8.500;2023-08-01T02:57:16;6.78;;;4.97;;
45434;SDS011;31183;47.404;8.500;2023-08-01T02:59:43;6.32;;;4.80;;
45434;SDS011;31183;47.404;8.500;2023-08-01T03:02:10;8.15;;;4.60;;
45434;SDS011;31183;47.404;8.500;2023-08-01T03:04:36;6.60;;;4.10;;
45434;SDS011;31183;47.404;8.500;2023-08-01T03:07:12;5.95;;;5.15;;
45434;SDS011;31183;47.404;8.500;2023-08-01T03:09:39;5.95;;;4.82;;
45434;SDS011;31183;47.404;8.500;2023-08-01T03:12:06;6.28;;;4.82;;
45434;SDS011;31183;47.404;8.500;2023-08-01T03:14:33;5.93;;;4.72;;
45434;SDS011;31183;47.404;8.500;2023-08-01T03:16:59;5.03;;;4.53;;
45434;SDS011;31183;47.404;8.500;2023-08-01T03:19:26;5.88;;;4.65;;
45434;SDS011;31183;47.404;8.500;2023-08-01T03:21:53;5.35;;;4.18;;
45434;SDS011;31183;47.404;8.500;2023-08-01T03:24:20;6.03;;;4.57;;
45434;SDS011;31183;47.404;8.500;2023-08-01T03:26:46;6.55;;;4.72;;
45434;SDS011;31183;47.404;8.500;2023-08-01T03:29:13;7.07;;;4.60;;
45434;SDS011;31183;47.404;8.500;2023-08-01T03:31:40;8.35;;;5.53;;
45434;SDS011;31183;47.404;8.500;2023-08-01T03:34:06;6.28;;;4.70;;
45434;SDS011;31183;47.404;8.500;2023-08-01T03:36:35;5.75;;;4.65;;
45434;SDS011;31183;47.404;8.500;2023-08-01T03:39:02;5.05;;;4.30;;
45434;SDS011;31183;47.404;8.500;2023-08-01T03:41:31;8.90;;;5.32;;
45434;SDS011;31183;47.404;8.500;2023-08-01T03:43:58;6.03;;;4.95;;
45434;SDS011;31183;47.404;8.500;2023-08-01T03:46:25;5.88;;;4.70;;
45434;SDS011;31183;47.404;8.500;2023-08-01T03:48:52;6.13;;;5.40;;
45434;SDS011;31183;47.404;8.500;2023-08-01T03:51:18;6.75;;;4.82;;
45434;SDS011;31183;47.404;8.500;2023-08-01T03:53:46;5.60;;;4.50;;
45434;SDS011;31183;47.404;8.500;2023-08-01T03:56:28;8.35;;;5.60;;
45434;SDS011;31183;47.404;8.500;2023-08-01T03:58:55;7.00;;;5.60;;
45434;SDS011;31183;47.404;8.500;2023-08-01T04:01:21;6.75;;;5.65;;
45434;SDS011;31183;47.404;8.500;2023-08-01T04:03:48;7.05;;;5.43;;
45434;SDS011;31183;47.404;8.500;2023-08-01T04:06:15;6.90;;;5.22;;
45434;SDS011;31183;47.404;8.500;2023-08-01T04:08:42;5.53;;;4.93;;
45434;SDS011;31183;47.404;8.500;2023-08-01T04:11:08;9.95;;;6.05;;
45434;SDS011;31183;47.404;8.500;2023-08-01T04:13:37;6.20;;;5.55;;
45434;SDS011;31183;47.404;8.500;2023-08-01T04:16:04;5.43;;;4.57;;
45434;SDS011;31183;47.404;8.500;2023-08-01T04:18:31;7.75;;;4.85;;
45434;SDS011;31183;47.404;8.500;2023-08-01T04:20:57;8.68;;;4.90;;
45434;SDS011;31183;47.404;8.500;2023-08-01T04:23:24;6.78;;;4.75;;
45434;SDS011;31183;47.404;8.500;2023-08-01T04:25:50;4.28;;;3.88;;
45434;SDS011;31183;47.404;8.500;2023-08-01T04:28:17;6.28;;;4.68;;
45434;SDS011;31183;47.404;8.500;2023-08-01T04:30:48;7.55;;;5.57;;
45434;SDS011;31183;47.404;8.500;2023-08-01T04:33:15;8.73;;;4.95;;
45434;SDS011;31183;47.404;8.500;2023-08-01T04:35:42;7.07;;;5.93;;
45434;SDS011;31183;47.404;8.500;2023-08-01T04:38:09;8.27;;;5.60;;
45434;SDS011;31183;47.404;8.500;2023-08-01T04:40:37;7.05;;;5.80;;
45434;SDS011;31183;47.404;8.500;2023-08-01T04:43:04;8.93;;;5.75;;
45434;SDS011;31183;47.404;8.500;2023-08-01T04:45:31;5.82;;;4.90;;
45434;SDS011;31183;47.404;8.500;2023-08-01T04:47:57;6.05;;;4.93;;
45434;SDS011;31183;47.404;8.500;2023-08-01T04:50:24;16.50;;;5.63;;
45434;SDS011;31183;47.404;8.500;2023-08-01T04:52:50;6.97;;;4.78;;
45434;SDS011;31183;47.404;8.500;2023-08-01T04:55:17;5.32;;;4.63;;
45434;SDS011;31183;47.404;8.500;2023-08-01T04:57:44;6.28;;;4.72;;
45434;SDS011;31183;47.404;8.500;2023-08-01T05:00:10;7.75;;;5.05;;
45434;SDS011;31183;47.404;8.500;2023-08-01T05:02:37;6.63;;;5.85;;
45434;SDS011;31183;47.404;8.500;2023-08-01T05:05:04;7.68;;;5.35;;
45434;SDS011;31183;47.404;8.500;2023-08-01T05:07:31;4.43;;;3.97;;
45434;SDS011;31183;47.404;8.500;2023-08-01T05:09:58;5.38;;;4.68;;
45434;SDS011;31183;47.404;8.500;2023-08-01T05:12:25;5.32;;;4.43;;
45434;SDS011;31183;47.404;8.500;2023-08-01T05:14:51;6.18;;;4.35;;
45434;SDS011;31183;47.404;8.500;2023-08-01T05:17:18;5.38;;;3.55;;
45434;SDS011;31183;47.404;8.500;2023-08-01T05:19:45;7.10;;;4.95;;
45434;SDS011;31183;47.404;8.500;2023-08-01T05:22:11;9.73;;;4.82;;
45434;SDS011;31183;47.404;8.500;2023-08-01T05:24:38;4.85;;;4.25;;
45434;SDS011;31183;47.404;8.500;2023-08-01T05:27:05;5.40;;;4.40;;
45434;SDS011;31183;47.404;8.500;2023-08-01T05:29:32;6.55;;;4.25;;
45434;SDS011;31183;47.404;8.500;2023-08-01T05:31:58;6.45;;;4.47;;
45434;SDS011;31183;47.404;8.500;2023-08-01T05:34:25;6.68;;;4.88;;
45434;SDS011;31183;47.404;8.500;2023-08-01T05:36:52;5.07;;;4.25;;
45434;SDS011;31183;47.404;8.500;2023-08-01T05:39:18;4.57;;;3.75;;
45434;SDS011;31183;47.404;8.500;2023-08-01T05:41:45;4.25;;;3.55;;
45434;SDS011;31183;47.404;8.500;2023-08-01T05:44:11;4.93;;;3.80;;
45434;SDS011;31183;47.404;8.500;2023-08-01T05:46:38;5.22;;;4.03;;
45434;SDS011;31183;47.404;8.500;2023-08-01T05:49:05;3.75;;;3.30;;
45434;SDS011;31183;47.404;8.500;2023-08-01T05:51:32;5.20;;;3.78;;
45434;SDS011;31183;47.404;8.500;2023-08-01T05:53:59;9.60;;;4.28;;
45434;SDS011;31183;47.404;8.500;2023-08-01T05:56:25;4.63;;;4.00;;
45434;SDS011;31183;47.404;8.500;2023-08-01T05:58:52;5.60;;;3.95;;
45434;SDS011;31183;47.404;8.500;2023-08-01T06:01:19;5.95;;;4.07;;
45434;SDS011;31183;47.404;8.500;2023-08-01T06:03:45;6.75;;;4.03;;
45434;SDS011;31183;47.404;8.500;2023-08-01T06:06:12;5.53;;;3.90;;
45434;SDS011;31183;47.404;8.500;2023-08-01T06:08:39;6.53;;;4.45;;
45434;SDS011;31183;47.404;8.500;2023-08-01T06:11:06;5.78;;;4.03;;
45434;SDS011;31183;47.404;8.500;2023-08-01T06:13:33;4.57;;;3.70;;
45434;SDS011;31183;47.404;8.500;2023-08-01T06:15:59;6.07;;;3.75;;
45434;SDS011;31183;47.404;8.500;2023-08-01T06:18:26;4.43;;;3.22;;
45434;SDS011;31183;47.404;8.500;2023-08-01T06:20:52;6.38;;;3.40;;
45434;SDS011;31183;47.404;8.500;2023-08-01T06:23:19;4.63;;;3.55;;
45434;SDS011;31183;47.404;8.500;2023-08-01T06:25:46;7.50;;;4.95;;
45434;SDS011;31183;47.404;8.500;2023-08-01T06:28:13;5.43;;;4.07;;
45434;SDS011;31183;47.404;8.500;2023-08-01T06:30:39;4.45;;;3.63;;
45434;SDS011;31183;47.404;8.500;2023-08-01T06:33:06;6.03;;;4.03;;
45434;SDS011;31183;47.404;8.500;2023-08-01T06:35:33;5.38;;;3.75;;
45434;SDS011;31183;47.404;8.500;2023-08-01T06:37:59;5.60;;;3.83;;
45434;SDS011;31183;47.404;8.500;2023-08-01T06:40:26;5.65;;;4.28;;
45434;SDS011;31183;47.404;8.500;2023-08-01T06:42:52;6.30;;;4.15;;
45434;SDS011;31183;47.404;8.500;2023-08-01T06:45:19;6.93;;;4.15;;
45434;SDS011;31183;47.404;8.500;2023-08-01T06:47:45;6.50;;;3.72;;
45434;SDS011;31183;47.404;8.500;2023-08-01T06:50:12;6.82;;;5.40;;
45434;SDS011;31183;47.404;8.500;2023-08-01T06:52:39;6.90;;;4.43;;
45434;SDS011;31183;47.404;8.500;2023-08-01T06:55:06;7.00;;;4.32;;
45434;SDS011;31183;47.404;8.500;2023-08-01T06:57:32;6.35;;;4.15;;
45434;SDS011;31183;47.404;8.500;2023-08-01T06:59:59;7.72;;;4.30;;
45434;SDS011;31183;47.404;8.500;2023-08-01T07:02:26;7.35;;;4.85;;
45434;SDS011;31183;47.404;8.500;2023-08-01T07:04:53;7.07;;;5.28;;
45434;SDS011;31183;47.404;8.500;2023-08-01T07:07:19;6.60;;;4.68;;
45434;SDS011;31183;47.404;8.500;2023-08-01T07:09:46;6.40;;;4.18;;
45434;SDS011;31183;47.404;8.500;2023-08-01T07:12:13;8.40;;;4.80;;
45434;SDS011;31183;47.404;8.500;2023-08-01T07:14:40;5.38;;;4.00;;
45434;SDS011;31183;47.404;8.500;2023-08-01T07:17:07;7.10;;;4.35;;
45434;SDS011;31183;47.404;8.500;2023-08-01T07:19:33;6.20;;;4.20;;
45434;SDS011;31183;47.404;8.500;2023-08-01T07:22:00;6.43;;;3.70;;
45434;SDS011;31183;47.404;8.500;2023-08-01T07:24:27;5.75;;;4.07;;
45434;SDS011;31183;47.404;8.500;2023-08-01T07:26:54;5.60;;;3.95;;
45434;SDS011;31183;47.404;8.500;2023-08-01T07:29:21;5.72;;;4.00;;
45434;SDS011;31183;47.404;8.500;2023-08-01T07:31:48;5.63;;;3.83;;
45434;SDS011;31183;47.404;8.500;2023-08-01T07:34:14;4.97;;;4.40;;
45434;SDS011;31183;47.404;8.500;2023-08-01T07:36:41;6.07;;;4.22;;
45434;SDS011;31183;47.404;8.500;2023-08-01T07:39:08;5.57;;;3.70;;
45434;SDS011;31183;47.404;8.500;2023-08-01T07:41:35;4.75;;;4.03;;
45434;SDS011;31183;47.404;8.500;2023-08-01T07:44:01;5.32;;;3.50;;
45434;SDS011;31183;47.404;8.500;2023-08-01T07:46:29;5.40;;;3.97;;
45434;SDS011;31183;47.404;8.500;2023-08-01T07:48:56;7.38;;;4.28;;
45434;SDS011;31183;47.404;8.500;2023-08-01T07:51:22;5.78;;;4.57;;
45434;SDS011;31183;47.404;8.500;2023-08-01T07:53:50;7.60;;;4.65;;
45434;SDS011;31183;47.404;8.500;2023-08-01T07:56:18;10.60;;;4.13;;
45434;SDS011;31183;47.404;8.500;2023-08-01T07:58:45;6.57;;;4.15;;
45434;SDS011;31183;47.404;8.500;2023-08-01T08:01:12;7.75;;;3.55;;
45434;SDS011;31183;47.404;8.500;2023-08-01T08:03:39;6.70;;;4.10;;
45434;SDS011;31183;47.404;8.500;2023-08-01T08:06:06;7.43;;;3.92;;
45434;SDS011;31183;47.404;8.500;2023-08-01T08:08:33;7.25;;;4.18;;
45434;SDS011;31183;47.404;8.500;2023-08-01T08:11:00;7.82;;;4.72;;
45434;SDS011;31183;47.404;8.500;2023-08-01T08:13:27;7.63;;;5.07;;
45434;SDS011;31183;47.404;8.500;2023-08-01T08:15:57;6.28;;;4.32;;
45434;SDS011;31183;47.404;8.500;2023-08-01T08:18:25;5.50;;;4.43;;
45434;SDS011;31183;47.404;8.500;2023-08-01T08:20:52;5.57;;;4.93;;
45434;SDS011;31183;47.404;8.500;2023-08-01T08:23:19;6.20;;;4.28;;
45434;SDS011;31183;47.404;8.500;2023-08-01T08:25:46;6.90;;;4.60;;
45434;SDS011;31183;47.404;8.500;2023-08-01T08:28:13;6.30;;;5.07;;
45434;SDS011;31183;47.404;8.500;2023-08-01T08:30:40;6.20;;;4.63;;
45434;SDS011;31183;47.404;8.500;2023-08-01T08:33:07;7.47;;;4.80;;
45434;SDS011;31183;47.404;8.500;2023-08-01T08:35:36;5.63;;;4.63;;
45434;SDS011;31183;47.404;8.500;2023-08-01T08:38:03;7.50;;;4.68;;
45434;SDS011;31183;47.404;8.500;2023-08-01T08:40:33;5.90;;;4.57;;
45434;SDS011;31183;47.404;8.500;2023-08-01T08:43:01;6.85;;;4.43;;
45434;SDS011;31183;47.404;8.500;2023-08-01T08:45:35;6.10;;;4.60;;
45434;SDS011;31183;47.404;8.500;2023-08-01T08:48:08;7.28;;;4.82;;
45434;SDS011;31183;47.404;8.500;2023-08-01T08:50:38;8.40;;;4.93;;
45434;SDS011;31183;47.404;8.500;2023-08-01T08:53:05;9.50;;;4.63;;
45434;SDS011;31183;47.404;8.500;2023-08-01T08:55:39;6.53;;;5.03;;
45434;SDS011;31183;47.404;8.500;2023-08-01T08:58:06;6.88;;;5.32;;
45434;SDS011;31183;47.404;8.500;2023-08-01T09:00:38;5.78;;;4.57;;
45434;SDS011;31183;47.404;8.500;2023-08-01T09:03:05;7.75;;;4.82;;
45434;SDS011;31183;47.404;8.500;2023-08-01T09:05:34;16.85;;;6.90;;
45434;SDS011;31183;47.404;8.500;2023-08-01T09:08:15;8.43;;;5.05;;
45434;SDS011;31183;47.404;8.500;2023-08-01T09:10:45;8.50;;;5.15;;
45434;SDS011;31183;47.404;8.500;2023-08-01T09:13:12;9.90;;;4.78;;
45434;SDS011;31183;47.404;8.500;2023-08-01T09:15:40;8.95;;;6.00;;
45434;SDS011;31183;47.404;8.500;2023-08-01T09:20:41;7.25;;;5.00;;
45434;SDS011;31183;47.404;8.500;2023-08-01T09:23:13;6.75;;;4.68;;
45434;SDS011;31183;47.404;8.500;2023-08-01T09:25:40;8.63;;;5.78;;
45434;SDS011;31183;47.404;8.500;2023-08-01T09:28:20;7.38;;;5.63;;
45434;SDS011;31183;47.404;8.500;2023-08-01T09:30:51;12.15;;;5.80;;
45434;SDS011;31183;47.404;8.500;2023-08-01T09:33:23;12.20;;;6.43;;
45434;SDS011;31183;47.404;8.500;2023-08-01T09:35:51;10.10;;;7.68;;
45434;SDS011;31183;47.404;8.500;2023-08-01T09:38:18;12.45;;;9.70;;
45434;SDS011;31183;47.404;8.500;2023-08-01T09:40:45;13.13;;;9.38;;
45434;SDS011;31183;47.404;8.500;2023-08-01T09:43:13;8.38;;;6.60;;
45434;SDS011;31183;47.404;8.500;2023-08-01T09:45:53;8.07;;;6.20;;
45434;SDS011;31183;47.404;8.500;2023-08-01T09:48:27;6.22;;;5.35;;
45434;SDS011;31183;47.404;8.500;2023-08-01T09:51:11;8.88;;;5.53;;
45434;SDS011;31183;47.404;8.500;2023-08-01T09:56:22;5.60;;;4.57;;
45434;SDS011;31183;47.404;8.500;2023-08-01T09:58:51;11.82;;;5.90;;
45434;SDS011;31183;47.404;8.500;2023-08-01T10:01:20;8.27;;;6.00;;
45434;SDS011;31183;47.404;8.500;2023-08-01T10:03:50;8.00;;;6.05;;
45434;SDS011;31183;47.404;8.500;2023-08-01T10:06:22;8.40;;;5.68;;
45434;SDS011;31183;47.404;8.500;2023-08-01T10:08:51;8.65;;;5.05;;
45434;SDS011;31183;47.404;8.500;2023-08-01T10:11:19;7.57;;;5.32;;
45434;SDS011;31183;47.404;8.500;2023-08-01T10:13:47;7.57;;;5.00;;
45434;SDS011;31183;47.404;8.500;2023-08-01T10:16:15;6.50;;;5.10;;
45434;SDS011;31183;47.404;8.500;2023-08-01T10:18:42;6.15;;;4.80;;
45434;SDS011;31183;47.404;8.500;2023-08-01T10:21:11;9.00;;;5.63;;
45434;SDS011;31183;47.404;8.500;2023-08-01T10:23:40;7.15;;;5.75;;
45434;SDS011;31183;47.404;8.500;2023-08-01T10:26:07;6.88;;;4.85;;
45434;SDS011;31183;47.404;8.500;2023-08-01T10:28:37;7.63;;;5.38;;
45434;SDS011;31183;47.404;8.500;2023-08-01T10:31:12;7.00;;;5.13;;
45434;SDS011;31183;47.404;8.500;2023-08-01T10:33:41;5.55;;;4.53;;
45434;SDS011;31183;47.404;8.500;2023-08-01T10:36:21;6.70;;;4.10;;
45434;SDS011;31183;47.404;8.500;2023-08-01T10:38:50;4.30;;;3.70;;
45434;SDS011;31183;47.404;8.500;2023-08-01T10:41:26;10.23;;;4.00;;
45434;SDS011;31183;47.404;8.500;2023-08-01T10:44:05;5.45;;;4.00;;
45434;SDS011;31183;47.404;8.500;2023-08-01T10:49:13;5.70;;;3.67;;
45434;SDS011;31183;47.404;8.500;2023-08-01T10:51:40;5.85;;;3.33;;
45434;SDS011;31183;47.404;8.500;2023-08-01T10:54:17;3.25;;;2.90;;
45434;SDS011;31183;47.404;8.500;2023-08-01T10:56:47;3.63;;;3.22;;
45434;SDS011;31183;47.404;8.500;2023-08-01T10:59:15;4.40;;;2.85;;
45434;SDS011;31183;47.404;8.500;2023-08-01T11:01:43;5.85;;;3.15;;
45434;SDS011;31183;47.404;8.500;2023-08-01T11:04:21;4.22;;;3.00;;
45434;SDS011;31183;47.404;8.500;2023-08-01T11:06:49;6.78;;;3.60;;
45434;SDS011;31183;47.404;8.500;2023-08-01T11:09:19;3.45;;;3.00;;
45434;SDS011;31183;47.404;8.500;2023-08-01T11:11:48;4.68;;;2.90;;
45434;SDS011;31183;47.404;8.500;2023-08-01T11:14:18;3.58;;;3.28;;
45434;SDS011;31183;47.404;8.500;2023-08-01T11:16:46;4.25;;;2.55;;
45434;SDS011;31183;47.404;8.500;2023-08-01T11:19:17;4.40;;;2.80;;
45434;SDS011;31183;47.404;8.500;2023-08-01T11:21:49;6.88;;;4.00;;
45434;SDS011;31183;47.404;8.500;2023-08-01T11:24:18;3.75;;;2.33;;
45434;SDS011;31183;47.404;8.500;2023-08-01T11:26:47;4.15;;;2.78;;
45434;SDS011;31183;47.404;8.500;2023-08-01T11:29:15;3.47;;;2.92;;
45434;SDS011;31183;47.404;8.500;2023-08-01T11:34:39;4.40;;;2.83;;
45434;SDS011;31183;47.404;8.500;2023-08-01T11:39:37;2.90;;;2.47;;
45434;SDS011;31183;47.404;8.500;2023-08-01T11:42:04;6.25;;;3.00;;
45434;SDS011;31183;47.404;8.500;2023-08-01T11:44:30;4.20;;;2.92;;
45434;SDS011;31183;47.404;8.500;2023-08-01T11:46:58;4.90;;;3.83;;
45434;SDS011;31183;47.404;8.500;2023-08-01T11:49:24;5.38;;;3.83;;
45434;SDS011;31183;47.404;8.500;2023-08-01T11:51:52;4.03;;;2.47;;
45434;SDS011;31183;47.404;8.500;2023-08-01T11:54:18;4.45;;;3.47;;
45434;SDS011;31183;47.404;8.500;2023-08-01T11:56:45;3.05;;;2.42;;
45434;SDS011;31183;47.404;8.500;2023-08-01T11:59:13;3.67;;;2.72;;
45434;SDS011;31183;47.404;8.500;2023-08-01T12:01:41;4.13;;;2.80;;
45434;SDS011;31183;47.404;8.500;2023-08-01T12:04:12;3.80;;;2.78;;
45434;SDS011;31183;47.404;8.500;2023-08-01T12:06:50;3.78;;;2.60;;
45434;SDS011;31183;47.404;8.500;2023-08-01T12:09:16;5.07;;;3.08;;
45434;SDS011;31183;47.404;8.500;2023-08-01T12:11:45;3.55;;;2.88;;
45434;SDS011;31183;47.404;8.500;2023-08-01T12:14:13;3.15;;;2.40;;
45434;SDS011;31183;47.404;8.500;2023-08-01T12:16:41;4.90;;;2.80;;
45434;SDS011;31183;47.404;8.500;2023-08-01T12:19:19;6.82;;;2.67;;
45434;SDS011;31183;47.404;8.500;2023-08-01T12:21:47;3.45;;;3.00;;
45434;SDS011;31183;47.404;8.500;2023-08-01T12:24:14;3.83;;;2.90;;
45434;SDS011;31183;47.404;8.500;2023-08-01T12:26:41;5.18;;;3.03;;
45434;SDS011;31183;47.404;8.500;2023-08-01T12:29:08;4.93;;;2.80;;
45434;SDS011;31183;47.404;8.500;2023-08-01T12:31:34;5.28;;;3.28;;
45434;SDS011;31183;47.404;8.500;2023-08-01T12:34:01;4.45;;;2.80;;
45434;SDS011;31183;47.404;8.500;2023-08-01T12:36:28;4.25;;;3.15;;
45434;SDS011;31183;47.404;8.500;2023-08-01T12:38:55;5.63;;;3.05;;
45434;SDS011;31183;47.404;8.500;2023-08-01T12:41:21;3.72;;;2.55;;
45434;SDS011;31183;47.404;8.500;2023-08-01T12:43:48;4.15;;;2.58;;
45434;SDS011;31183;47.404;8.500;2023-08-01T12:46:15;3.35;;;2.20;;
45434;SDS011;31183;47.404;8.500;2023-08-01T12:48:43;3.28;;;2.22;;
45434;SDS011;31183;47.404;8.500;2023-08-01T12:51:10;2.78;;;2.28;;
45434;SDS011;31183;47.404;8.500;2023-08-01T12:53:36;3.15;;;2.75;;
45434;SDS011;31183;47.404;8.500;2023-08-01T12:56:05;2.63;;;2.42;;
45434;SDS011;31183;47.404;8.500;2023-08-01T12:58:32;3.47;;;2.50;;
45434;SDS011;31183;47.404;8.500;2023-08-01T13:00:59;3.70;;;2.47;;
45434;SDS011;31183;47.404;8.500;2023-08-01T13:03:28;3.30;;;2.42;;
45434;SDS011;31183;47.404;8.500;2023-08-01T13:05:56;3.08;;;2.10;;
45434;SDS011;31183;47.404;8.500;2023-08-01T13:08:24;4.72;;;3.28;;
45434;SDS011;31183;47.404;8.500;2023-08-01T13:10:51;5.07;;;2.80;;
45434;SDS011;31183;47.404;8.500;2023-08-01T13:13:18;3.38;;;2.72;;
45434;SDS011;31183;47.404;8.500;2023-08-01T13:15:45;2.92;;;2.47;;
45434;SDS011;31183;47.404;8.500;2023-08-01T13:18:11;4.78;;;2.92;;
45434;SDS011;31183;47.404;8.500;2023-08-01T13:20:40;3.65;;;2.80;;
45434;SDS011;31183;47.404;8.500;2023-08-01T13:23:07;3.17;;;2.20;;
45434;SDS011;31183;47.404;8.500;2023-08-01T13:25:34;4.57;;;4.03;;
45434;SDS011;31183;47.404;8.500;2023-08-01T13:28:02;2.90;;;2.28;;
45434;SDS011;31183;47.404;8.500;2023-08-01T13:30:28;4.63;;;2.55;;
45434;SDS011;31183;47.404;8.500;2023-08-01T13:32:55;4.30;;;2.83;;
45434;SDS011;31183;47.404;8.500;2023-08-01T13:35:22;3.25;;;2.67;;
45434;SDS011;31183;47.404;8.500;2023-08-01T13:37:49;2.88;;;2.53;;
45434;SDS011;31183;47.404;8.500;2023-08-01T13:40:15;4.10;;;2.70;;
45434;SDS011;31183;47.404;8.500;2023-08-01T13:42:42;2.95;;;2.35;;
45434;SDS011;31183;47.404;8.500;2023-08-01T13:45:09;3.70;;;2.67;;
45434;SDS011;31183;47.404;8.500;2023-08-01T13:47:35;3.65;;;3.22;;
45434;SDS011;31183;47.404;8.500;2023-08-01T13:50:02;5.28;;;2.85;;
45434;SDS011;31183;47.404;8.500;2023-08-01T13:52:29;3.40;;;2.55;;
45434;SDS011;31183;47.404;8.500;2023-08-01T13:54:56;5.15;;;3.28;;
45434;SDS011;31183;47.404;8.500;2023-08-01T13:57:22;5.00;;;2.63;;
45434;SDS011;31183;47.404;8.500;2023-08-01T13:59:52;2.53;;;2.33;;
45434;SDS011;31183;47.404;8.500;2023-08-01T14:02:35;3.83;;;2.40;;
45434;SDS011;31183;47.404;8.500;2023-08-01T14:05:02;2.65;;;2.20;;
45434;SDS011;31183;47.404;8.500;2023-08-01T14:07:29;3.78;;;2.30;;
45434;SDS011;31183;47.404;8.500;2023-08-01T14:09:55;4.03;;;2.78;;
45434;SDS011;31183;47.404;8.500;2023-08-01T14:12:22;2.30;;;2.05;;
45434;SDS011;31183;47.404;8.500;2023-08-01T14:14:50;2.92;;;1.90;;
45434;SDS011;31183;47.404;8.500;2023-08-01T14:17:17;4.90;;;2.33;;
45434;SDS011;31183;47.404;8.500;2023-08-01T14:19:43;2.97;;;2.15;;
45434;SDS011;31183;47.404;8.500;2023-08-01T14:22:10;2.42;;;1.92;;
45434;SDS011;31183;47.404;8.500;2023-08-01T14:24:37;2.85;;;2.30;;
45434;SDS011;31183;47.404;8.500;2023-08-01T14:27:03;3.22;;;2.40;;
45434;SDS011;31183;47.404;8.500;2023-08-01T14:29:30;3.20;;;2.33;;
45434;SDS011;31183;47.404;8.500;2023-08-01T14:31:57;4.25;;;3.25;;
45434;SDS011;31183;47.404;8.500;2023-08-01T14:34:24;3.28;;;2.30;;
45434;SDS011;31183;47.404;8.500;2023-08-01T14:36:50;2.50;;;2.30;;
45434;SDS011;31183;47.404;8.500;2023-08-01T14:39:17;4.50;;;2.40;;
45434;SDS011;31183;47.404;8.500;2023-08-01T14:41:49;4.70;;;2.10;;
45434;SDS011;31183;47.404;8.500;2023-08-01T14:44:18;2.88;;;1.90;;
45434;SDS011;31183;47.404;8.500;2023-08-01T14:46:45;2.92;;;1.48;;
45434;SDS011;31183;47.404;8.500;2023-08-01T14:49:12;2.35;;;1.48;;
45434;SDS011;31183;47.404;8.500;2023-08-01T14:51:39;2.90;;;1.70;;
45434;SDS011;31183;47.404;8.500;2023-08-01T14:54:05;2.70;;;1.75;;
45434;SDS011;31183;47.404;8.500;2023-08-01T14:56:32;2.45;;;1.60;;
45434;SDS011;31183;47.404;8.500;2023-08-01T14:58:58;3.67;;;2.17;;
45434;SDS011;31183;47.404;8.500;2023-08-01T15:01:25;14.90;;;2.42;;
45434;SDS011;31183;47.404;8.500;2023-08-01T15:03:53;2.72;;;1.50;;